Time;durP1;ratioP1;P1;durP2;ratioP2;P2;SDS_P1;SDS_P2;PMS_P1;PMS_P2;Temp;Humidity;BMP_temperature;BMP_pressure;BME280_temperature;BME280_humidity;BME280_pressure;Samples;Min_cycle;Max_cycle;Signal;HPM_P1;HPM_P2
2021/10/18 00:00:08;;;;;;;23.52;15.80;;;4.40;99.90;;;;;;4765897;30;20418;-79
2021/10/18 00:02:39;;;;;;;35.00;19.52;;;4.60;99.90;;;;;;4752264;30;20059;-79
2021/10/18 00:05:11;;;;;;;39.25;16.00;;;4.90;99.90;;;;;;4779999;30;20406;-79
2021/10/18 00:07:39;;;;;;;170.43;24.15;;;5.20;99.90;;;;;;4786640;30;20051;-79
2021/10/18 00:10:13;;;;;;;96.68;18.45;;;5.30;99.90;;;;;;4785160;30;20059;-80
2021/10/18 00:12:42;;;;;;;45.22;16.48;;;5.30;99.90;;;;;;4785452;30;20435;-80
2021/10/18 00:15:12;;;;;;;42.10;13.98;;;5.30;99.90;;;;;;4770987;30;20059;-80
2021/10/18 00:17:39;;;;;;;30.40;14.02;;;5.20;99.90;;;;;;4767017;30;20410;-79
2021/10/18 00:20:09;;;;;;;44.75;13.93;;;5.20;99.90;;;;;;4767905;30;20383;-79
2021/10/18 00:22:37;;;;;;;77.00;19.60;;;5.20;99.90;;;;;;4768045;30;20525;-79
2021/10/18 00:25:07;;;;;;;22.17;14.32;;;5.20;99.90;;;;;;4767517;30;20047;-79
2021/10/18 00:27:34;;;;;;;32.45;13.73;;;5.30;99.90;;;;;;4752284;30;20055;-79
2021/10/18 00:30:04;;;;;;;100.80;22.95;;;5.30;99.90;;;;;;4765901;30;20059;-80
2021/10/18 00:32:32;;;;;;;35.55;16.65;;;5.30;99.90;;;;;;4768382;30;20403;-79
2021/10/18 00:35:00;;;;;;;65.57;19.55;;;5.40;99.90;;;;;;4752184;30;20082;-79
2021/10/18 00:37:28;;;;;;;41.35;15.02;;;5.30;99.90;;;;;;4767311;30;20117;-79
2021/10/18 00:39:56;;;;;;;45.15;17.83;;;5.30;99.90;;;;;;4767353;30;20059;-79
2021/10/18 00:42:24;;;;;;;54.22;15.68;;;5.30;99.90;;;;;;4767193;30;20047;-79
2021/10/18 00:44:51;;;;;;;55.33;18.13;;;5.20;99.90;;;;;;4750243;30;20059;-79
2021/10/18 00:47:21;;;;;;;40.88;15.93;;;5.20;99.90;;;;;;4767809;30;20044;-79
2021/10/18 00:49:49;;;;;;;31.88;15.10;;;5.30;99.90;;;;;;4767305;30;20044;-80
2021/10/18 00:52:19;;;;;;;87.03;18.02;;;5.40;99.90;;;;;;4766660;30;20215;-79
2021/10/18 00:54:48;;;;;;;23.83;15.70;;;5.30;99.90;;;;;;4767267;30;20048;-79
2021/10/18 00:57:16;;;;;;;67.18;17.58;;;5.20;99.90;;;;;;4767175;30;20119;-79
2021/10/18 00:59:45;;;;;;;28.95;13.73;;;5.30;99.90;;;;;;4766358;30;20479;-79
2021/10/18 01:02:13;;;;;;;46.75;15.88;;;5.20;99.90;;;;;;4766942;30;20070;-79
2021/10/18 01:04:42;;;;;;;30.20;16.45;;;5.30;99.90;;;;;;4775872;30;20513;-79
2021/10/18 01:07:11;;;;;;;54.70;17.67;;;5.10;99.90;;;;;;4769447;30;20504;-79
2021/10/18 01:09:39;;;;;;;24.90;12.77;;;5.20;99.90;;;;;;4784649;30;20495;-79
2021/10/18 01:12:06;;;;;;;30.73;16.95;;;5.30;99.90;;;;;;4768728;30;20062;-79
2021/10/18 01:14:35;;;;;;;33.45;14.93;;;5.20;99.90;;;;;;4783658;30;20411;-79
2021/10/18 01:17:03;;;;;;;21.42;14.45;;;5.20;99.90;;;;;;4784644;30;20066;-79
2021/10/18 01:19:31;;;;;;;50.60;15.57;;;5.20;99.90;;;;;;4769628;30;20321;-79
2021/10/18 01:22:01;;;;;;;31.15;14.25;;;5.10;99.90;;;;;;4768440;30;20055;-79
2021/10/18 01:24:31;;;;;;;21.63;14.75;;;5.10;99.90;;;;;;4766993;30;20043;-79
2021/10/18 01:27:00;;;;;;;48.63;18.27;;;5.10;99.90;;;;;;4765995;30;20549;-79
2021/10/18 01:29:34;;;;;;;70.45;18.90;;;5.30;99.90;;;;;;4764796;30;20052;-79
2021/10/18 01:32:04;;;;;;;81.78;22.05;;;5.20;99.90;;;;;;4750584;30;20083;-79
2021/10/18 01:34:33;;;;;;;63.33;18.13;;;5.20;99.90;;;;;;4766949;30;20060;-79
2021/10/18 01:37:02;;;;;;;55.05;18.08;;;5.20;99.90;;;;;;4766833;30;20071;-79
2021/10/18 01:39:30;;;;;;;71.53;21.50;;;5.20;99.90;;;;;;4766848;30;20062;-79
2021/10/18 01:41:58;;;;;;;57.85;15.63;;;5.20;99.90;;;;;;4766009;30;20073;-79
2021/10/18 01:44:25;;;;;;;43.67;14.48;;;5.20;99.90;;;;;;4749438;30;20059;-79
2021/10/18 01:46:53;;;;;;;56.67;17.92;;;5.30;99.90;;;;;;4766750;30;20068;-79
2021/10/18 01:49:21;;;;;;;81.57;20.60;;;5.20;99.90;;;;;;4766622;30;20322;-79
2021/10/18 01:51:49;;;;;;;23.85;12.63;;;5.20;99.90;;;;;;4766508;30;20070;-79
2021/10/18 01:54:16;;;;;;;25.48;12.48;;;5.30;99.90;;;;;;4750241;30;20047;-79
2021/10/18 01:56:44;;;;;;;83.70;20.40;;;5.30;99.90;;;;;;4766168;30;20055;-79
2021/10/18 01:59:12;;;;;;;43.17;17.05;;;5.30;99.90;;;;;;4765188;30;20522;-79
2021/10/18 02:01:40;;;;;;;44.78;14.38;;;5.30;99.90;;;;;;4765914;30;20066;-79
2021/10/18 02:04:08;;;;;;;30.35;14.00;;;5.20;99.90;;;;;;4771392;30;20394;-80
2021/10/18 02:06:35;;;;;;;26.35;13.30;;;5.20;99.90;;;;;;4784690;30;20054;-79
2021/10/18 02:09:03;;;;;;;30.63;14.90;;;5.30;99.90;;;;;;4783550;30;20055;-79
2021/10/18 02:11:31;;;;;;;20.90;12.63;;;5.30;99.90;;;;;;4784048;30;20047;-79
2021/10/18 02:13:58;;;;;;;37.90;13.65;;;5.30;99.90;;;;;;4782429;30;20635;-79
2021/10/18 02:16:26;;;;;;;118.07;18.75;;;5.30;99.90;;;;;;4784539;30;20047;-79
2021/10/18 02:18:54;;;;;;;23.23;13.75;;;5.20;99.90;;;;;;4784196;30;20055;-79
2021/10/18 02:21:23;;;;;;;28.08;13.63;;;5.10;99.90;;;;;;4783394;30;20068;-79
2021/10/18 02:23:50;;;;;;;62.80;13.75;;;5.20;99.90;;;;;;4786572;29;20394;-79
2021/10/18 02:26:18;;;;;;;70.53;16.23;;;5.10;99.90;;;;;;4771763;30;20055;-79
2021/10/18 02:28:45;;;;;;;66.13;17.20;;;5.10;99.90;;;;;;4786311;30;20542;-80
2021/10/18 02:31:14;;;;;;;61.33;17.85;;;5.00;99.90;;;;;;4771440;30;20506;-79
2021/10/18 02:33:42;;;;;;;58.65;19.60;;;5.00;99.90;;;;;;4787723;30;20066;-79
2021/10/18 02:36:10;;;;;;;66.28;16.13;;;5.00;99.90;;;;;;4787892;30;20073;-80
2021/10/18 02:38:39;;;;;;;32.30;13.18;;;5.00;99.90;;;;;;4756253;30;20048;-79
2021/10/18 02:41:08;;;;;;;59.53;17.92;;;5.00;99.90;;;;;;4770988;30;20052;-79
2021/10/18 02:43:35;;;;;;;78.72;17.50;;;5.00;99.90;;;;;;4786257;30;20055;-79
2021/10/18 02:46:03;;;;;;;53.58;14.43;;;5.00;99.90;;;;;;4787329;30;20346;-79
2021/10/18 02:48:31;;;;;;;60.15;17.02;;;4.90;99.90;;;;;;4775389;30;20051;-79
2021/10/18 02:50:59;;;;;;;37.78;16.15;;;5.00;99.90;;;;;;4768586;30;20491;-79
2021/10/18 02:53:27;;;;;;;30.38;13.57;;;4.90;99.90;;;;;;4769069;30;20527;-79
2021/10/18 02:55:54;;;;;;;45.30;14.32;;;4.90;99.90;;;;;;4753578;30;20121;-79
2021/10/18 02:58:22;;;;;;;59.20;14.25;;;4.90;99.90;;;;;;4751671;30;20051;-79
2021/10/18 03:00:50;;;;;;;42.15;14.98;;;4.90;99.90;;;;;;4768717;30;20067;-79
2021/10/18 03:03:17;;;;;;;39.03;16.15;;;4.90;99.90;;;;;;4769346;30;20048;-79
2021/10/18 03:05:46;;;;;;;67.28;15.35;;;4.90;99.90;;;;;;4785904;30;20043;-79
2021/10/18 03:08:14;;;;;;;65.90;20.08;;;4.90;99.90;;;;;;4786947;30;20078;-79
2021/10/18 03:10:43;;;;;;;84.70;17.60;;;4.80;99.90;;;;;;4786424;30;20055;-79
2021/10/18 03:13:14;;;;;;;57.53;13.63;;;4.80;99.90;;;;;;4785331;30;20064;-80
2021/10/18 03:15:43;;;;;;;73.03;19.33;;;4.80;99.90;;;;;;4787073;30;20406;-79
2021/10/18 03:18:11;;;;;;;42.42;15.98;;;4.70;99.90;;;;;;4786339;30;20529;-79
2021/10/18 03:20:38;;;;;;;29.95;12.18;;;4.80;99.90;;;;;;4786883;30;20047;-78
2021/10/18 03:23:06;;;;;;;19.13;11.68;;;4.80;99.90;;;;;;4770022;30;20063;-79
2021/10/18 03:25:36;;;;;;;21.83;14.20;;;4.80;99.90;;;;;;4776981;30;20055;-79
2021/10/18 03:28:08;;;;;;;17.55;14.55;;;4.90;99.90;;;;;;4767528;30;20060;-79
2021/10/18 03:30:36;;;;;;;18.63;12.45;;;4.80;99.90;;;;;;4768424;30;20498;-78
2021/10/18 03:33:04;;;;;;;23.48;12.68;;;4.80;99.90;;;;;;4768909;30;20292;-79
2021/10/18 03:35:32;;;;;;;20.30;11.93;;;4.80;99.90;;;;;;4752191;30;20427;-79
2021/10/18 03:38:00;;;;;;;19.15;12.13;;;4.80;99.90;;;;;;4768734;30;20493;-79
2021/10/18 03:40:28;;;;;;;46.67;16.08;;;4.80;99.90;;;;;;4768657;30;20051;-78
2021/10/18 03:42:56;;;;;;;99.30;22.15;;;4.80;99.90;;;;;;4750970;30;20384;-79
2021/10/18 03:45:23;;;;;;;60.58;18.17;;;4.80;99.90;;;;;;4768086;30;20048;-79
2021/10/18 03:47:51;;;;;;;80.05;19.33;;;4.80;99.90;;;;;;4753182;30;20479;-78
2021/10/18 03:50:19;;;;;;;49.17;15.25;;;4.70;99.90;;;;;;4768060;30;20056;-79
2021/10/18 03:52:46;;;;;;;35.13;13.40;;;4.80;99.90;;;;;;4768447;30;20052;-79
2021/10/18 03:55:14;;;;;;;23.58;15.68;;;4.80;99.90;;;;;;4768522;30;20062;-78
2021/10/18 03:57:42;;;;;;;21.70;13.65;;;4.80;99.90;;;;;;4767937;30;20055;-79
2021/10/18 04:00:10;;;;;;;47.92;14.52;;;4.80;99.90;;;;;;4751125;30;20052;-79
2021/10/18 04:02:42;;;;;;;56.83;13.25;;;4.80;99.90;;;;;;4752230;30;20059;-78
2021/10/18 04:05:10;;;;;;;24.80;13.32;;;4.80;99.90;;;;;;4764189;30;20074;-78
2021/10/18 04:07:39;;;;;;;13.00;8.77;;;4.80;99.90;;;;;;4786546;30;20059;-78
2021/10/18 04:10:07;;;;;;;18.75;13.68;;;4.90;99.90;;;;;;4784889;30;20055;-79
2021/10/18 04:12:34;;;;;;;25.20;13.75;;;4.90;99.90;;;;;;4785948;30;20055;-78
2021/10/18 04:15:03;;;;;;;21.75;12.18;;;4.90;99.90;;;;;;4750732;30;20079;-78
2021/10/18 04:17:31;;;;;;;23.55;12.52;;;5.00;99.90;;;;;;4767998;30;20059;-79
2021/10/18 04:20:12;;;;;;;27.38;14.68;;;5.00;99.90;;;;;;4767939;30;20399;-84
2021/10/18 04:22:46;;;;;;;41.88;14.45;;;5.00;99.90;;;;;;4767303;30;20046;-78
2021/10/18 04:25:15;;;;;;;109.85;16.95;;;4.90;99.90;;;;;;4784089;29;20537;-79
2021/10/18 04:27:43;;;;;;;62.30;15.60;;;4.90;99.90;;;;;;4769749;30;20059;-78
2021/10/18 04:30:12;;;;;;;28.88;11.05;;;4.80;99.90;;;;;;4767751;30;20708;-78
2021/10/18 04:32:39;;;;;;;21.17;12.45;;;4.70;99.90;;;;;;4786030;30;20051;-78
2021/10/18 04:35:07;;;;;;;31.67;12.77;;;4.70;99.90;;;;;;4769137;30;20048;-79
2021/10/18 04:37:35;;;;;;;28.33;12.35;;;4.70;99.90;;;;;;4785391;30;20068;-78
2021/10/18 04:40:03;;;;;;;28.17;12.73;;;4.70;99.90;;;;;;4785115;30;20059;-79
2021/10/18 04:42:31;;;;;;;19.42;9.98;;;4.70;99.90;;;;;;4784882;30;20439;-80
2021/10/18 04:44:58;;;;;;;60.45;16.27;;;4.80;99.90;;;;;;4783680;29;22477;-79
2021/10/18 04:47:26;;;;;;;17.67;12.77;;;4.70;99.90;;;;;;4766676;30;20059;-79
2021/10/18 04:49:54;;;;;;;53.38;13.30;;;4.80;99.90;;;;;;4751137;30;20044;-79
2021/10/18 04:52:22;;;;;;;38.40;13.68;;;4.80;99.90;;;;;;4767936;30;20604;-79
2021/10/18 04:54:49;;;;;;;96.78;18.85;;;4.80;99.90;;;;;;4784865;30;20054;-78
2021/10/18 04:57:17;;;;;;;31.58;11.80;;;4.80;99.90;;;;;;4784706;30;20055;-79
2021/10/18 04:59:45;;;;;;;19.50;11.73;;;4.70;99.90;;;;;;4784005;30;20063;-79
2021/10/18 05:02:12;;;;;;;32.63;11.98;;;4.70;99.90;;;;;;4784385;30;20048;-78
2021/10/18 05:04:40;;;;;;;57.97;14.27;;;4.70;99.90;;;;;;4768548;30;20047;-79
2021/10/18 05:07:08;;;;;;;56.35;14.88;;;4.60;99.90;;;;;;4786122;29;20529;-78
2021/10/18 05:09:36;;;;;;;49.88;13.45;;;4.50;99.90;;;;;;4791879;29;20051;-78
2021/10/18 05:12:04;;;;;;;69.55;17.42;;;4.50;99.90;;;;;;4786604;29;20047;-80
2021/10/18 05:14:32;;;;;;;42.47;14.02;;;4.40;99.90;;;;;;4787850;29;20493;-78
2021/10/18 05:16:59;;;;;;;54.42;15.75;;;4.40;99.90;;;;;;4788001;29;20062;-78
2021/10/18 05:19:27;;;;;;;44.38;13.68;;;4.40;99.90;;;;;;4788249;29;20426;-78
2021/10/18 05:21:55;;;;;;;74.40;15.80;;;4.40;99.90;;;;;;4803607;29;20050;-79
2021/10/18 05:24:23;;;;;;;76.90;15.70;;;4.30;99.90;;;;;;4786012;29;20047;-77
2021/10/18 05:26:50;;;;;;;39.88;12.35;;;4.30;99.90;;;;;;4787606;29;20047;-78
2021/10/18 05:29:18;;;;;;;71.60;16.42;;;4.30;99.90;;;;;;4803033;29;20073;-79
2021/10/18 05:31:46;;;;;;;41.83;12.77;;;4.30;99.90;;;;;;4798989;29;20051;-79
2021/10/18 05:34:13;;;;;;;120.43;26.92;;;4.30;99.90;;;;;;4769597;30;20066;-78
2021/10/18 05:36:41;;;;;;;29.83;14.13;;;4.30;99.90;;;;;;4754574;30;20063;-79
2021/10/18 05:39:13;;;;;;;95.88;19.00;;;4.30;99.90;;;;;;4770813;30;20536;-79
2021/10/18 05:41:41;;;;;;;32.63;12.30;;;4.30;99.90;;;;;;4785479;30;20051;-79
2021/10/18 05:44:08;;;;;;;24.80;12.50;;;4.30;99.90;;;;;;4785442;30;20402;-79
2021/10/18 05:46:36;;;;;;;56.33;13.65;;;4.30;99.90;;;;;;4785882;30;20143;-79
2021/10/18 05:49:04;;;;;;;84.70;16.33;;;4.40;99.90;;;;;;4754838;30;20541;-78
2021/10/18 05:51:31;;;;;;;66.95;15.50;;;4.30;99.90;;;;;;4740422;30;20062;-79
2021/10/18 05:53:59;;;;;;;37.67;11.75;;;4.30;99.90;;;;;;4769396;30;20066;-79
2021/10/18 05:56:27;;;;;;;145.52;20.05;;;4.40;99.90;;;;;;4737479;30;20055;-87
2021/10/18 05:58:55;;;;;;;83.75;18.80;;;4.30;99.90;;;;;;4762817;30;20044;-86
2021/10/18 06:01:23;;;;;;;65.65;14.48;;;4.20;99.90;;;;;;4772800;30;20554;-85
2021/10/18 06:03:51;;;;;;;49.33;16.25;;;4.20;99.90;;;;;;4774390;29;20051;-85
2021/10/18 06:06:20;;;;;;;125.05;21.42;;;4.20;99.90;;;;;;4749531;30;20402;-85
2021/10/18 06:09:10;;;;;;;52.35;13.63;;;4.10;99.90;;;;;;4764382;30;20059;-85
2021/10/18 06:11:37;;;;;;;51.90;14.65;;;4.20;99.90;;;;;;4765153;30;20573;-85
2021/10/18 06:14:05;;;;;;;70.35;12.75;;;4.20;99.90;;;;;;4763276;30;20051;-85
2021/10/18 06:16:33;;;;;;;34.67;12.80;;;4.20;99.90;;;;;;4735794;30;20064;-85
2021/10/18 06:19:01;;;;;;;17.70;8.25;;;4.30;99.90;;;;;;4750065;30;20060;-82
2021/10/18 06:21:29;;;;;;;14.55;9.52;;;4.40;99.90;;;;;;4734628;30;20056;-78
2021/10/18 06:23:57;;;;;;;13.27;8.15;;;4.50;99.90;;;;;;4766137;30;20052;-88
2021/10/18 06:26:25;;;;;;;19.25;11.10;;;4.50;99.90;;;;;;4750102;30;20048;-85
2021/10/18 06:28:53;;;;;;;20.88;9.55;;;4.60;99.90;;;;;;4748507;30;20052;-82
2021/10/18 06:31:21;;;;;;;10.63;8.40;;;4.70;99.90;;;;;;4735433;30;20056;-83
2021/10/18 06:33:49;;;;;;;27.75;9.80;;;4.70;99.90;;;;;;4764436;30;20482;-85
2021/10/18 06:36:17;;;;;;;25.35;11.68;;;4.70;99.90;;;;;;4750488;30;20082;-83
2021/10/18 06:38:44;;;;;;;13.38;9.85;;;4.80;99.90;;;;;;4735038;30;20052;-84
2021/10/18 06:41:12;;;;;;;20.25;9.95;;;4.80;99.90;;;;;;4734665;30;20066;-83
2021/10/18 06:43:40;;;;;;;16.70;12.07;;;4.80;99.90;;;;;;4748782;30;20060;-84
2021/10/18 06:46:07;;;;;;;15.02;10.48;;;5.00;99.90;;;;;;4765694;30;20510;-84
2021/10/18 06:48:37;;;;;;;41.75;13.60;;;4.90;99.90;;;;;;4745903;30;20059;-84
2021/10/18 06:51:05;;;;;;;13.52;9.07;;;5.00;99.90;;;;;;4749497;30;20060;-85
2021/10/18 06:53:34;;;;;;;20.00;13.05;;;5.10;99.90;;;;;;4734796;30;20071;-84
2021/10/18 06:56:04;;;;;;;14.73;10.25;;;5.10;99.90;;;;;;4744799;30;20068;-85
2021/10/18 06:58:33;;;;;;;15.10;9.95;;;5.20;99.90;;;;;;4752891;30;20268;-87
2021/10/18 07:01:02;;;;;;;15.00;11.35;;;5.20;99.90;;;;;;4766736;30;20401;-85
2021/10/18 07:03:30;;;;;;;33.42;12.45;;;5.20;99.90;;;;;;4784177;30;20050;-86
2021/10/18 07:06:00;;;;;;;31.90;13.57;;;5.30;99.90;;;;;;4764578;30;20056;-85
2021/10/18 07:08:28;;;;;;;52.78;17.80;;;5.30;99.90;;;;;;4736134;30;20064;-86
2021/10/18 07:10:55;;;;;;;151.75;24.65;;;5.40;99.90;;;;;;4752425;30;20063;-85
2021/10/18 07:13:23;;;;;;;69.20;19.30;;;5.30;99.90;;;;;;4783754;24;20051;-85
2021/10/18 07:15:51;;;;;;;39.30;12.75;;;5.30;99.90;;;;;;4768378;30;20067;-86
2021/10/18 07:18:19;;;;;;;49.28;16.83;;;5.30;99.90;;;;;;4767636;30;20059;-86
2021/10/18 07:20:47;;;;;;;135.15;21.38;;;5.30;99.90;;;;;;4752101;30;20064;-86
2021/10/18 07:23:15;;;;;;;58.25;15.93;;;5.30;99.90;;;;;;4738458;30;20064;-87
2021/10/18 07:25:44;;;;;;;55.90;17.70;;;5.30;99.90;;;;;;4749263;30;20068;-86
2021/10/18 07:28:11;;;;;;;44.90;14.68;;;5.30;99.90;;;;;;4748033;30;20068;-86
2021/10/18 07:30:41;;;;;;;17.08;9.65;;;5.40;99.90;;;;;;4749138;30;20075;-86
2021/10/18 07:33:08;;;;;;;18.77;9.82;;;5.40;99.90;;;;;;4759960;30;20058;-86
2021/10/18 07:35:37;;;;;;;34.25;14.20;;;5.50;99.90;;;;;;4768775;30;20075;-86
2021/10/18 07:38:05;;;;;;;18.10;11.55;;;5.60;99.90;;;;;;4768472;30;20052;-86
2021/10/18 07:40:33;;;;;;;80.50;14.35;;;5.60;99.90;;;;;;4767368;30;20398;-85
2021/10/18 07:43:01;;;;;;;15.68;10.40;;;5.70;99.90;;;;;;4751231;30;20053;-87
2021/10/18 07:45:30;;;;;;;19.65;11.63;;;5.70;99.90;;;;;;4766873;30;20051;-86
2021/10/18 07:47:58;;;;;;;40.13;14.45;;;5.70;99.90;;;;;;4767899;30;20485;-87
2021/10/18 07:50:26;;;;;;;60.05;19.00;;;5.90;99.90;;;;;;4752005;30;20051;-87
2021/10/18 07:52:53;;;;;;;68.25;15.23;;;5.90;99.90;;;;;;4751790;30;20071;-86
2021/10/18 07:55:21;;;;;;;21.40;9.60;;;5.90;99.90;;;;;;4768973;30;20412;-86
2021/10/18 07:57:51;;;;;;;41.83;12.93;;;6.00;99.90;;;;;;4766541;30;20047;-86
2021/10/18 08:00:19;;;;;;;78.63;16.83;;;6.10;99.90;;;;;;4765902;30;20063;-86
2021/10/18 08:02:46;;;;;;;15.00;9.35;;;6.10;99.90;;;;;;4768574;30;20047;-86
2021/10/18 08:05:18;;;;;;;18.75;10.02;;;6.10;99.90;;;;;;4751856;30;20403;-86
2021/10/18 08:07:51;;;;;;;26.70;12.02;;;6.20;99.90;;;;;;4767227;30;20063;-86
2021/10/18 08:10:26;;;;;;;36.00;8.95;;;6.30;99.90;;;;;;4751486;30;20056;-85
2021/10/18 08:12:57;;;;;;;70.03;14.88;;;6.40;99.90;;;;;;4765764;30;20062;-86
2021/10/18 08:15:26;;;;;;;50.90;15.15;;;6.40;99.90;;;;;;4748833;30;20059;-86
2021/10/18 08:17:54;;;;;;;15.82;8.63;;;6.40;99.90;;;;;;4748803;30;20056;-86
2021/10/18 08:20:22;;;;;;;19.58;10.98;;;6.40;99.90;;;;;;4748184;30;20044;-86
2021/10/18 08:22:52;;;;;;;17.08;10.27;;;6.50;99.90;;;;;;4749088;30;20051;-87
2021/10/18 08:25:27;;;;;;;37.72;13.70;;;6.40;99.90;;;;;;4764223;30;20054;-86
2021/10/18 08:27:57;;;;;;;55.88;16.30;;;6.40;99.90;;;;;;4749720;30;20410;-85
2021/10/18 08:30:25;;;;;;;51.45;12.60;;;6.40;99.90;;;;;;4764857;30;20056;-86
2021/10/18 08:32:55;;;;;;;56.50;16.48;;;6.50;99.90;;;;;;4766266;30;20055;-87
2021/10/18 08:35:22;;;;;;;24.55;10.48;;;6.60;99.90;;;;;;4751645;30;20067;-87
2021/10/18 08:40:43;;;;;;;51.03;12.13;;;6.40;99.90;;;;;;4751082;30;20043;-86
2021/10/18 08:45:46;;;;;;;16.55;9.05;;;6.60;99.90;;;;;;4766421;30;20046;-86
2021/10/18 08:48:14;;;;;;;15.85;9.38;;;6.60;99.90;;;;;;4766680;30;20435;-85
2021/10/18 08:50:41;;;;;;;32.97;14.73;;;6.80;99.90;;;;;;4755621;30;20044;-86
2021/10/18 08:53:10;;;;;;;52.80;16.50;;;6.90;99.90;;;;;;4769959;30;20047;-86
2021/10/18 08:55:39;;;;;;;38.88;14.00;;;6.90;99.90;;;;;;4769406;30;20059;-85
2021/10/18 08:58:08;;;;;;;23.30;13.73;;;6.80;99.90;;;;;;4736298;30;20063;-86
2021/10/18 09:00:43;;;;;;;22.08;9.40;;;6.70;99.90;;;;;;4767645;30;20414;-86
2021/10/18 09:03:17;;;;;;;51.67;16.52;;;6.90;99.90;;;;;;4762728;30;20063;-86
2021/10/18 09:05:45;;;;;;;16.23;11.98;;;7.10;99.90;;;;;;4734173;30;20288;-83
2021/10/18 09:08:33;;;;;;;25.25;11.40;;;7.00;99.90;;;;;;4749649;30;20059;-83
2021/10/18 09:11:05;;;;;;;36.80;13.57;;;7.00;99.90;;;;;;4756745;30;20402;-86
2021/10/18 09:13:35;;;;;;;20.65;10.77;;;6.90;99.90;;;;;;4765680;30;20056;-87
2021/10/18 09:16:03;;;;;;;16.30;9.57;;;6.90;99.90;;;;;;4751525;30;20055;-85
2021/10/18 09:18:31;;;;;;;15.88;10.65;;;6.90;99.90;;;;;;4766558;30;20326;-83
2021/10/18 09:20:59;;;;;;;17.90;11.77;;;6.90;99.90;;;;;;4766050;30;20643;-87
2021/10/18 09:23:36;;;;;;;15.07;11.63;;;7.00;99.90;;;;;;4747448;30;20278;-84
2021/10/18 09:26:07;;;;;;;24.80;12.07;;;7.20;99.90;;;;;;4743191;30;20431;-85
2021/10/18 09:28:36;;;;;;;19.45;9.60;;;7.30;99.90;;;;;;4746058;30;20056;-85
2021/10/18 09:31:04;;;;;;;16.63;11.40;;;7.20;99.90;;;;;;4746251;30;20059;-84
2021/10/18 09:33:38;;;;;;;15.43;12.38;;;7.20;99.90;;;;;;4748549;30;20056;-88
2021/10/18 09:36:14;;;;;;;17.08;10.52;;;7.30;99.90;;;;;;4733340;30;20059;-85
2021/10/18 09:38:49;;;;;;;17.50;12.25;;;7.40;99.90;;;;;;4747439;30;20048;-87
2021/10/18 09:41:24;;;;;;;21.83;13.70;;;7.50;99.90;;;;;;4732134;30;20052;-86
2021/10/18 09:44:00;;;;;;;16.92;10.32;;;7.50;99.90;;;;;;4747331;30;20411;-86
2021/10/18 09:46:39;;;;;;;22.95;12.85;;;7.60;99.90;;;;;;4746698;30;20043;-86
2021/10/18 10:56:49;;;;;;;14.20;12.70;;;9.40;99.90;;;;;;4752410;29;20402;-83
2021/10/18 10:59:30;;;;;;;14.50;10.32;;;9.40;99.90;;;;;;4754870;30;20066;-90
2021/10/18 11:02:11;;;;;;;13.38;10.00;;;9.50;99.90;;;;;;4740468;30;20051;-84
2021/10/18 11:04:42;;;;;;;16.02;10.60;;;9.60;99.90;;;;;;4769078;30;20063;-82
2021/10/18 11:07:14;;;;;;;15.60;12.90;;;9.40;99.90;;;;;;4767976;30;20387;-83
2021/10/18 11:09:54;;;;;;;17.90;11.48;;;9.50;99.90;;;;;;4768532;30;20060;-83
2021/10/18 11:12:28;;;;;;;18.00;12.25;;;9.40;99.90;;;;;;4767085;30;20411;-83
2021/10/18 11:15:07;;;;;;;15.88;12.77;;;9.40;99.90;;;;;;4731555;30;20043;-85
2021/10/18 11:17:38;;;;;;;21.20;13.00;;;9.70;99.90;;;;;;4766407;30;20056;-84
2021/10/18 11:20:14;;;;;;;16.60;10.97;;;10.00;99.90;;;;;;4766267;30;20059;-84
2021/10/18 11:22:50;;;;;;;19.95;13.07;;;10.40;99.90;;;;;;4767976;30;20410;-82
2021/10/18 11:25:25;;;;;;;17.25;12.88;;;10.60;99.90;;;;;;4763325;30;20048;-82
2021/10/18 11:27:56;;;;;;;19.20;12.27;;;10.60;99.90;;;;;;4771071;30;20043;-83
2021/10/18 11:30:26;;;;;;;18.17;13.00;;;10.80;99.90;;;;;;4786069;30;20517;-84
2021/10/18 11:33:02;;;;;;;17.90;15.88;;;10.90;99.90;;;;;;4785774;29;20058;-82
2021/10/18 11:35:32;;;;;;;21.88;13.05;;;11.00;99.90;;;;;;4787938;30;20063;-83
2021/10/18 11:38:06;;;;;;;17.35;12.55;;;11.10;99.90;;;;;;4785843;30;20062;-87
2021/10/18 11:40:48;;;;;;;18.23;13.57;;;11.20;99.90;;;;;;4787985;30;20410;-88
2021/10/18 11:43:23;;;;;;;20.40;13.85;;;11.30;99.90;;;;;;4775981;30;20563;-85
2021/10/18 11:45:56;;;;;;;18.02;11.43;;;11.30;99.90;;;;;;4757039;30;20498;-86
2021/10/18 11:48:30;;;;;;;21.80;11.75;;;11.40;99.90;;;;;;4787889;30;20066;-85
2021/10/18 11:51:01;;;;;;;20.02;13.73;;;11.50;99.90;;;;;;4778105;30;20047;-85
2021/10/18 11:53:41;;;;;;;21.73;16.13;;;11.70;99.90;;;;;;4771295;30;20051;-85
2021/10/18 11:56:18;;;;;;;19.10;14.90;;;11.70;99.90;;;;;;4756297;30;20312;-84
2021/10/18 11:58:46;;;;;;;23.52;13.88;;;11.80;99.90;;;;;;4767896;30;20057;-86
2021/10/18 12:01:15;;;;;;;19.58;13.00;;;11.80;99.90;;;;;;4765191;30;20071;-85
2021/10/18 12:03:46;;;;;;;18.70;11.75;;;11.80;99.90;;;;;;4768078;30;20055;-87
2021/10/18 12:06:14;;;;;;;23.05;13.38;;;11.90;99.90;;;;;;4767685;30;20047;-84
2021/10/18 12:08:49;;;;;;;19.58;11.93;;;12.10;99.90;;;;;;4751585;30;20048;-84
2021/10/18 12:11:17;;;;;;;23.15;14.13;;;12.30;99.90;;;;;;4768946;30;20511;-84
2021/10/18 12:13:45;;;;;;;19.40;12.18;;;12.40;99.90;;;;;;4785539;30;20140;-85
2021/10/18 12:16:19;;;;;;;20.83;13.32;;;12.60;99.90;;;;;;4787305;30;20399;-86
2021/10/18 12:19:00;;;;;;;20.55;13.32;;;12.80;99.90;;;;;;4786907;30;20052;-86
2021/10/18 12:21:32;;;;;;;14.98;13.35;;;12.90;99.90;;;;;;4791388;29;20699;-84
2021/10/18 12:24:02;;;;;;;16.73;11.23;;;12.90;99.90;;;;;;4805578;29;20146;-86
2021/10/18 12:26:31;;;;;;;13.33;9.77;;;12.90;99.90;;;;;;4793963;29;20062;-85
2021/10/18 12:29:06;;;;;;;21.58;13.32;;;12.80;99.90;;;;;;4781043;30;20055;-84
2021/10/18 12:31:40;;;;;;;18.63;11.98;;;12.90;99.90;;;;;;4777131;30;20051;-84
2021/10/18 12:34:19;;;;;;;22.15;13.88;;;13.00;99.90;;;;;;4779736;30;20043;-86
2021/10/18 12:37:07;;;;;;;16.60;11.25;;;13.10;99.90;;;;;;4780118;30;20048;-82
2021/10/18 12:39:38;;;;;;;16.42;10.55;;;13.20;99.90;;;;;;4763831;30;20052;-82
2021/10/18 12:42:11;;;;;;;;;;;13.10;99.90;;;;;;4768537;30;20060;-83
2021/10/18 12:44:48;;;;;;;17.85;10.23;;;13.00;99.90;;;;;;4783486;29;19929;-83
2021/10/18 12:47:19;;;;;;;15.60;11.80;;;13.00;99.90;;;;;;4781663;30;20054;-87
2021/10/18 12:50:01;;;;;;;21.02;14.40;;;13.00;99.90;;;;;;4737832;30;20055;-83
2021/10/18 12:52:32;;;;;;;20.10;12.55;;;13.20;99.90;;;;;;4753762;30;20076;-83
2021/10/18 12:55:23;;;;;;;16.27;11.80;;;13.20;99.90;;;;;;4782522;30;20070;-84
2021/10/18 12:57:55;;;;;;;17.70;11.30;;;13.30;99.90;;;;;;4783748;29;20051;-82
2021/10/18 13:00:27;;;;;;;14.20;10.70;;;13.40;99.90;;;;;;4785879;30;20055;-82
2021/10/18 13:03:06;;;;;;;17.50;15.10;;;13.50;99.90;;;;;;4765206;30;20503;-82
2021/10/18 13:05:47;;;;;;;18.58;12.18;;;13.50;99.90;;;;;;4768846;29;20066;-82
2021/10/18 13:08:17;;;;;;;16.13;12.07;;;13.60;99.90;;;;;;4737798;30;20067;-82
2021/10/18 13:10:49;;;;;;;;;;;13.80;99.90;;;;;;4737007;30;20851;-82
2021/10/18 13:13:19;;;;;;;14.68;11.18;;;13.80;99.90;;;;;;4750579;30;19936;-82
2021/10/18 13:15:50;;;;;;;17.10;10.38;;;13.60;99.90;;;;;;4767881;30;20388;-82
2021/10/18 13:18:19;;;;;;;15.50;10.73;;;13.50;99.90;;;;;;4768086;30;20062;-81
2021/10/18 13:20:47;;;;;;;18.52;11.63;;;13.30;99.90;;;;;;4751792;30;20071;-84
2021/10/18 13:23:16;;;;;;;12.60;9.90;;;13.50;99.90;;;;;;4764351;30;20060;-84
2021/10/18 13:25:45;;;;;;;17.30;11.80;;;13.60;99.90;;;;;;4758944;30;20063;-84
2021/10/18 13:28:14;;;;;;;16.50;9.80;;;13.70;99.90;;;;;;4764961;30;20048;-85
2021/10/18 13:30:42;;;;;;;18.23;11.00;;;13.80;99.90;;;;;;4767308;30;20085;-84
2021/10/18 13:33:10;;;;;;;14.38;10.82;;;13.80;99.90;;;;;;4767789;30;20051;-84
2021/10/18 13:35:38;;;;;;;24.60;14.07;;;13.90;99.90;;;;;;4752621;30;20075;-83
2021/10/18 13:38:09;;;;;;;20.27;12.45;;;13.70;99.90;;;;;;4751714;30;20059;-86
2021/10/18 13:40:37;;;;;;;19.48;11.57;;;13.70;99.90;;;;;;4768319;30;20063;-81
2021/10/18 13:43:09;;;;;;;17.35;12.05;;;13.60;99.90;;;;;;4767113;30;20066;-87
2021/10/18 13:45:38;;;;;;;19.23;12.77;;;13.50;99.90;;;;;;4751862;30;20056;-87
2021/10/18 13:48:06;;;;;;;16.10;11.40;;;13.40;99.90;;;;;;4767643;30;20128;-82
2021/10/18 13:50:34;;;;;;;19.48;13.20;;;13.50;99.90;;;;;;4766070;30;20506;-85
2021/10/18 13:53:02;;;;;;;18.65;12.60;;;13.60;99.90;;;;;;4764992;30;20051;-83
2021/10/18 13:55:30;;;;;;;22.83;14.10;;;13.40;99.90;;;;;;4764451;30;20063;-86
2021/10/18 13:57:58;;;;;;;24.40;14.15;;;13.30;99.90;;;;;;4768095;30;20414;-85
2021/10/18 14:00:26;;;;;;;17.25;12.73;;;13.30;99.90;;;;;;4768911;30;20055;-85